Terminal Aerodrome Forecast
Issued by NWS

Current Version | Previous Version | Text Only | Print | Product List | Glossary On
Versions: 1 2 3 4 5 6 7 8 9 10 11 12 13 14 15 16 17
381
FTUS41 KBTV 301724
TAFMSS
TAF
KMSS 301724Z 3018/3118 05006KT P6SM FEW200
     FM302300 06006KT P6SM BKN200
     FM310700 06008KT P6SM VCSH OVC120
     FM311200 06012KT 4SM -SN BR OVC060
     FM311600 06013G20KT 2SM -RASN BR OVC040=

USA.gov is the U.S. government's official web portal to all federal, state and local government web resources and services.